sensor_id;sensor_type;location;lat;lon;timestamp;P1;durP1;ratioP1;P2;durP2;ratioP2
14074;SDS011;12831;52.392;13.066;2023-04-06T00:01:26;11.63;;;4.17;;
14074;SDS011;12831;52.392;13.066;2023-04-06T00:03:52;7.07;;;4.27;;
14074;SDS011;12831;52.392;13.066;2023-04-06T00:06:18;5.80;;;3.83;;
14074;SDS011;12831;52.392;13.066;2023-04-06T00:08:44;7.80;;;4.07;;
14074;SDS011;12831;52.392;13.066;2023-04-06T00:11:10;9.20;;;3.80;;
14074;SDS011;12831;52.392;13.066;2023-04-06T00:13:35;8.43;;;3.53;;
14074;SDS011;12831;52.392;13.066;2023-04-06T00:16:01;9.17;;;3.93;;
14074;SDS011;12831;52.392;13.066;2023-04-06T00:18:27;7.50;;;4.77;;
14074;SDS011;12831;52.392;13.066;2023-04-06T00:20:53;10.30;;;4.80;;
14074;SDS011;12831;52.392;13.066;2023-04-06T00:23:19;8.73;;;4.83;;
14074;SDS011;12831;52.392;13.066;2023-04-06T00:25:45;11.30;;;4.23;;
14074;SDS011;12831;52.392;13.066;2023-04-06T00:28:10;7.83;;;4.07;;
14074;SDS011;12831;52.392;13.066;2023-04-06T00:30:36;6.73;;;4.10;;
14074;SDS011;12831;52.392;13.066;2023-04-06T00:33:02;6.87;;;4.00;;
14074;SDS011;12831;52.392;13.066;2023-04-06T00:35:27;10.00;;;4.20;;
14074;SDS011;12831;52.392;13.066;2023-04-06T00:37:53;9.03;;;3.80;;
14074;SDS011;12831;52.392;13.066;2023-04-06T00:40:19;8.03;;;3.97;;
14074;SDS011;12831;52.392;13.066;2023-04-06T00:42:45;9.37;;;4.10;;
14074;SDS011;12831;52.392;13.066;2023-04-06T00:45:11;7.57;;;3.90;;
14074;SDS011;12831;52.392;13.066;2023-04-06T00:47:36;10.37;;;4.10;;
14074;SDS011;12831;52.392;13.066;2023-04-06T00:50:03;9.77;;;3.87;;
14074;SDS011;12831;52.392;13.066;2023-04-06T00:52:28;7.83;;;4.43;;
14074;SDS011;12831;52.392;13.066;2023-04-06T00:54:54;10.87;;;4.07;;
14074;SDS011;12831;52.392;13.066;2023-04-06T00:57:20;7.63;;;4.23;;
14074;SDS011;12831;52.392;13.066;2023-04-06T00:59:46;12.43;;;4.30;;
14074;SDS011;12831;52.392;13.066;2023-04-06T01:02:11;6.33;;;3.70;;
14074;SDS011;12831;52.392;13.066;2023-04-06T01:04:37;7.27;;;4.37;;
14074;SDS011;12831;52.392;13.066;2023-04-06T01:07:03;7.53;;;3.90;;
14074;SDS011;12831;52.392;13.066;2023-04-06T01:09:29;10.27;;;4.00;;
14074;SDS011;12831;52.392;13.066;2023-04-06T01:11:56;7.67;;;3.90;;
14074;SDS011;12831;52.392;13.066;2023-04-06T01:14:22;12.40;;;4.17;;
14074;SDS011;12831;52.392;13.066;2023-04-06T01:16:48;10.60;;;4.33;;
14074;SDS011;12831;52.392;13.066;2023-04-06T01:19:14;9.80;;;4.30;;
14074;SDS011;12831;52.392;13.066;2023-04-06T01:21:40;8.53;;;4.80;;
14074;SDS011;12831;52.392;13.066;2023-04-06T01:24:06;7.00;;;4.40;;
14074;SDS011;12831;52.392;13.066;2023-04-06T01:26:32;7.67;;;4.50;;
14074;SDS011;12831;52.392;13.066;2023-04-06T01:28:58;8.20;;;3.77;;
14074;SDS011;12831;52.392;13.066;2023-04-06T01:31:24;6.60;;;4.07;;
14074;SDS011;12831;52.392;13.066;2023-04-06T01:33:50;10.90;;;4.20;;
14074;SDS011;12831;52.392;13.066;2023-04-06T01:36:16;7.33;;;4.40;;
14074;SDS011;12831;52.392;13.066;2023-04-06T01:38:42;7.83;;;4.40;;
14074;SDS011;12831;52.392;13.066;2023-04-06T01:41:08;7.93;;;3.90;;
14074;SDS011;12831;52.392;13.066;2023-04-06T01:43:34;8.87;;;4.30;;
14074;SDS011;12831;52.392;13.066;2023-04-06T01:46:00;8.90;;;4.90;;
14074;SDS011;12831;52.392;13.066;2023-04-06T01:48:26;8.90;;;4.00;;
14074;SDS011;12831;52.392;13.066;2023-04-06T01:50:52;9.57;;;4.77;;
14074;SDS011;12831;52.392;13.066;2023-04-06T01:53:18;6.97;;;4.53;;
14074;SDS011;12831;52.392;13.066;2023-04-06T01:55:44;10.60;;;4.53;;
14074;SDS011;12831;52.392;13.066;2023-04-06T01:58:09;11.33;;;4.27;;
14074;SDS011;12831;52.392;13.066;2023-04-06T02:00:35;6.67;;;4.27;;
14074;SDS011;12831;52.392;13.066;2023-04-06T02:03:01;7.10;;;4.17;;
14074;SDS011;12831;52.392;13.066;2023-04-06T02:05:27;10.80;;;4.57;;
14074;SDS011;12831;52.392;13.066;2023-04-06T02:07:53;9.50;;;4.77;;
14074;SDS011;12831;52.392;13.066;2023-04-06T02:10:19;10.10;;;4.73;;
14074;SDS011;12831;52.392;13.066;2023-04-06T02:12:45;7.53;;;4.60;;
14074;SDS011;12831;52.392;13.066;2023-04-06T02:15:10;7.70;;;4.67;;
14074;SDS011;12831;52.392;13.066;2023-04-06T02:17:39;6.77;;;4.27;;
14074;SDS011;12831;52.392;13.066;2023-04-06T02:20:05;9.20;;;4.87;;
14074;SDS011;12831;52.392;13.066;2023-04-06T02:22:31;7.80;;;4.93;;
14074;SDS011;12831;52.392;13.066;2023-04-06T02:24:56;15.10;;;4.70;;
14074;SDS011;12831;52.392;13.066;2023-04-06T02:27:22;8.00;;;4.53;;
14074;SDS011;12831;52.392;13.066;2023-04-06T02:29:48;22.77;;;6.13;;
14074;SDS011;12831;52.392;13.066;2023-04-06T02:32:14;10.87;;;5.10;;
14074;SDS011;12831;52.392;13.066;2023-04-06T02:34:40;10.23;;;5.27;;
14074;SDS011;12831;52.392;13.066;2023-04-06T02:37:06;13.57;;;5.40;;
14074;SDS011;12831;52.392;13.066;2023-04-06T02:39:31;11.10;;;5.77;;
14074;SDS011;12831;52.392;13.066;2023-04-06T02:41:57;13.23;;;5.40;;
14074;SDS011;12831;52.392;13.066;2023-04-06T02:44:23;8.40;;;5.07;;
14074;SDS011;12831;52.392;13.066;2023-04-06T02:46:49;10.70;;;5.63;;
14074;SDS011;12831;52.392;13.066;2023-04-06T02:49:15;14.07;;;5.97;;
14074;SDS011;12831;52.392;13.066;2023-04-06T02:51:41;10.03;;;5.83;;
14074;SDS011;12831;52.392;13.066;2023-04-06T02:54:07;10.40;;;5.53;;
14074;SDS011;12831;52.392;13.066;2023-04-06T02:56:33;11.57;;;5.23;;
14074;SDS011;12831;52.392;13.066;2023-04-06T02:58:58;14.03;;;6.03;;
14074;SDS011;12831;52.392;13.066;2023-04-06T03:01:24;7.47;;;4.80;;
14074;SDS011;12831;52.392;13.066;2023-04-06T03:03:50;9.60;;;5.87;;
14074;SDS011;12831;52.392;13.066;2023-04-06T03:06:16;9.77;;;5.30;;
14074;SDS011;12831;52.392;13.066;2023-04-06T03:08:42;12.07;;;5.83;;
14074;SDS011;12831;52.392;13.066;2023-04-06T03:11:08;12.30;;;5.50;;
14074;SDS011;12831;52.392;13.066;2023-04-06T03:13:34;10.47;;;6.27;;
14074;SDS011;12831;52.392;13.066;2023-04-06T03:16:00;13.83;;;8.10;;
14074;SDS011;12831;52.392;13.066;2023-04-06T03:18:25;10.67;;;6.03;;
14074;SDS011;12831;52.392;13.066;2023-04-06T03:20:51;9.97;;;5.87;;
14074;SDS011;12831;52.392;13.066;2023-04-06T03:23:19;9.80;;;6.10;;
14074;SDS011;12831;52.392;13.066;2023-04-06T03:25:46;16.67;;;6.77;;
14074;SDS011;12831;52.392;13.066;2023-04-06T03:28:12;14.97;;;7.43;;
14074;SDS011;12831;52.392;13.066;2023-04-06T03:30:37;11.93;;;6.37;;
14074;SDS011;12831;52.392;13.066;2023-04-06T03:33:03;14.93;;;6.97;;
14074;SDS011;12831;52.392;13.066;2023-04-06T03:35:29;12.97;;;5.67;;
14074;SDS011;12831;52.392;13.066;2023-04-06T03:37:55;8.87;;;5.33;;
14074;SDS011;12831;52.392;13.066;2023-04-06T03:40:21;10.87;;;5.80;;
14074;SDS011;12831;52.392;13.066;2023-04-06T03:42:46;12.43;;;5.80;;
14074;SDS011;12831;52.392;13.066;2023-04-06T03:45:12;20.07;;;9.07;;
14074;SDS011;12831;52.392;13.066;2023-04-06T03:47:39;17.57;;;8.00;;
14074;SDS011;12831;52.392;13.066;2023-04-06T03:50:05;19.80;;;7.43;;
14074;SDS011;12831;52.392;13.066;2023-04-06T03:52:31;12.63;;;6.57;;
14074;SDS011;12831;52.392;13.066;2023-04-06T03:54:57;9.87;;;6.17;;
14074;SDS011;12831;52.392;13.066;2023-04-06T03:57:23;11.67;;;6.57;;
14074;SDS011;12831;52.392;13.066;2023-04-06T03:59:48;11.63;;;6.20;;
14074;SDS011;12831;52.392;13.066;2023-04-06T04:02:14;13.50;;;5.53;;
14074;SDS011;12831;52.392;13.066;2023-04-06T04:04:40;14.77;;;6.47;;
14074;SDS011;12831;52.392;13.066;2023-04-06T04:07:06;12.13;;;5.90;;
14074;SDS011;12831;52.392;13.066;2023-04-06T04:09:32;12.10;;;7.17;;
14074;SDS011;12831;52.392;13.066;2023-04-06T04:11:58;13.30;;;7.30;;
14074;SDS011;12831;52.392;13.066;2023-04-06T04:14:24;12.10;;;6.63;;
14074;SDS011;12831;52.392;13.066;2023-04-06T04:16:52;16.67;;;6.43;;
14074;SDS011;12831;52.392;13.066;2023-04-06T04:19:18;16.77;;;7.67;;
14074;SDS011;12831;52.392;13.066;2023-04-06T04:21:45;15.00;;;6.67;;
14074;SDS011;12831;52.392;13.066;2023-04-06T04:24:11;13.13;;;7.40;;
14074;SDS011;12831;52.392;13.066;2023-04-06T04:26:37;10.17;;;6.00;;
14074;SDS011;12831;52.392;13.066;2023-04-06T04:29:03;14.23;;;7.40;;
14074;SDS011;12831;52.392;13.066;2023-04-06T04:31:29;10.07;;;6.50;;
14074;SDS011;12831;52.392;13.066;2023-04-06T04:33:55;11.60;;;7.07;;
14074;SDS011;12831;52.392;13.066;2023-04-06T04:36:21;13.87;;;6.70;;
14074;SDS011;12831;52.392;13.066;2023-04-06T04:38:47;14.37;;;7.70;;
14074;SDS011;12831;52.392;13.066;2023-04-06T04:41:13;13.47;;;7.23;;
14074;SDS011;12831;52.392;13.066;2023-04-06T04:43:39;15.13;;;7.40;;
14074;SDS011;12831;52.392;13.066;2023-04-06T04:46:04;14.17;;;6.67;;
14074;SDS011;12831;52.392;13.066;2023-04-06T04:48:31;10.13;;;6.80;;
14074;SDS011;12831;52.392;13.066;2023-04-06T04:50:56;13.93;;;6.90;;
14074;SDS011;12831;52.392;13.066;2023-04-06T04:53:22;12.77;;;7.40;;
14074;SDS011;12831;52.392;13.066;2023-04-06T04:55:50;17.20;;;7.43;;
14074;SDS011;12831;52.392;13.066;2023-04-06T04:58:16;18.83;;;7.47;;
14074;SDS011;12831;52.392;13.066;2023-04-06T05:00:42;11.70;;;6.50;;
14074;SDS011;12831;52.392;13.066;2023-04-06T05:03:08;13.93;;;7.40;;
14074;SDS011;12831;52.392;13.066;2023-04-06T05:05:35;11.50;;;6.37;;
14074;SDS011;12831;52.392;13.066;2023-04-06T05:08:01;11.77;;;6.20;;
14074;SDS011;12831;52.392;13.066;2023-04-06T05:10:27;16.43;;;6.53;;
14074;SDS011;12831;52.392;13.066;2023-04-06T05:12:53;11.73;;;6.60;;
14074;SDS011;12831;52.392;13.066;2023-04-06T05:15:19;12.70;;;6.00;;
14074;SDS011;12831;52.392;13.066;2023-04-06T05:17:45;11.47;;;5.60;;
14074;SDS011;12831;52.392;13.066;2023-04-06T05:20:11;14.33;;;8.10;;
14074;SDS011;12831;52.392;13.066;2023-04-06T05:22:37;10.87;;;5.30;;
14074;SDS011;12831;52.392;13.066;2023-04-06T05:25:03;11.85;;;6.15;;
14074;SDS011;12831;52.392;13.066;2023-04-06T05:27:29;10.25;;;7.07;;
14074;SDS011;12831;52.392;13.066;2023-04-06T05:29:55;15.05;;;6.88;;
14074;SDS011;12831;52.392;13.066;2023-04-06T05:32:23;11.02;;;5.95;;
14074;SDS011;12831;52.392;13.066;2023-04-06T05:34:50;10.13;;;4.95;;
14074;SDS011;12831;52.392;13.066;2023-04-06T05:37:16;10.02;;;5.03;;
14074;SDS011;12831;52.392;13.066;2023-04-06T05:39:42;9.73;;;4.95;;
14074;SDS011;12831;52.392;13.066;2023-04-06T05:42:08;12.13;;;5.70;;
14074;SDS011;12831;52.392;13.066;2023-04-06T05:44:34;13.43;;;5.63;;
14074;SDS011;12831;52.392;13.066;2023-04-06T05:47:01;12.18;;;6.10;;
14074;SDS011;12831;52.392;13.066;2023-04-06T05:49:27;17.00;;;7.63;;
14074;SDS011;12831;52.392;13.066;2023-04-06T05:51:53;11.70;;;5.15;;
14074;SDS011;12831;52.392;13.066;2023-04-06T05:54:18;11.73;;;5.30;;
14074;SDS011;12831;52.392;13.066;2023-04-06T05:56:45;12.18;;;6.45;;
14074;SDS011;12831;52.392;13.066;2023-04-06T05:59:11;13.48;;;6.45;;
14074;SDS011;12831;52.392;13.066;2023-04-06T06:01:37;8.85;;;4.95;;
14074;SDS011;12831;52.392;13.066;2023-04-06T06:04:02;11.73;;;5.00;;
14074;SDS011;12831;52.392;13.066;2023-04-06T06:06:29;14.68;;;5.55;;
14074;SDS011;12831;52.392;13.066;2023-04-06T06:08:58;10.93;;;6.68;;
14074;SDS011;12831;52.392;13.066;2023-04-06T06:11:29;11.07;;;5.82;;
14074;SDS011;12831;52.392;13.066;2023-04-06T06:13:55;8.48;;;4.85;;
14074;SDS011;12831;52.392;13.066;2023-04-06T06:16:21;9.50;;;4.82;;
14074;SDS011;12831;52.392;13.066;2023-04-06T06:18:47;11.17;;;4.63;;
14074;SDS011;12831;52.392;13.066;2023-04-06T06:21:13;10.23;;;5.90;;
14074;SDS011;12831;52.392;13.066;2023-04-06T06:23:39;11.07;;;5.00;;
14074;SDS011;12831;52.392;13.066;2023-04-06T06:26:05;9.57;;;4.50;;
14074;SDS011;12831;52.392;13.066;2023-04-06T06:28:31;9.63;;;4.80;;
14074;SDS011;12831;52.392;13.066;2023-04-06T06:30:57;12.13;;;4.93;;
14074;SDS011;12831;52.392;13.066;2023-04-06T06:33:24;10.30;;;5.33;;
14074;SDS011;12831;52.392;13.066;2023-04-06T06:35:56;7.97;;;4.70;;
14074;SDS011;12831;52.392;13.066;2023-04-06T06:38:22;8.27;;;4.50;;
14074;SDS011;12831;52.392;13.066;2023-04-06T06:40:49;13.53;;;4.63;;
14074;SDS011;12831;52.392;13.066;2023-04-06T06:43:15;7.33;;;4.30;;
14074;SDS011;12831;52.392;13.066;2023-04-06T06:45:42;15.47;;;4.70;;
14074;SDS011;12831;52.392;13.066;2023-04-06T06:48:08;11.77;;;4.77;;
14074;SDS011;12831;52.392;13.066;2023-04-06T06:50:35;13.53;;;5.83;;
14074;SDS011;12831;52.392;13.066;2023-04-06T06:53:01;11.17;;;5.03;;
14074;SDS011;12831;52.392;13.066;2023-04-06T06:55:27;8.17;;;4.80;;
14074;SDS011;12831;52.392;13.066;2023-04-06T06:57:53;13.63;;;4.70;;
14074;SDS011;12831;52.392;13.066;2023-04-06T07:00:19;9.87;;;4.37;;
14074;SDS011;12831;52.392;13.066;2023-04-06T07:02:47;10.60;;;4.93;;
14074;SDS011;12831;52.392;13.066;2023-04-06T07:05:16;7.78;;;4.65;;
14074;SDS011;12831;52.392;13.066;2023-04-06T07:07:49;13.43;;;6.10;;
14074;SDS011;12831;52.392;13.066;2023-04-06T07:10:15;11.60;;;4.72;;
14074;SDS011;12831;52.392;13.066;2023-04-06T07:12:41;8.50;;;4.32;;
14074;SDS011;12831;52.392;13.066;2023-04-06T07:15:07;9.40;;;4.57;;
14074;SDS011;12831;52.392;13.066;2023-04-06T07:17:37;14.77;;;5.70;;
14074;SDS011;12831;52.392;13.066;2023-04-06T07:20:03;8.80;;;4.55;;
14074;SDS011;12831;52.392;13.066;2023-04-06T07:22:29;9.00;;;4.43;;
14074;SDS011;12831;52.392;13.066;2023-04-06T07:24:56;8.05;;;4.43;;
14074;SDS011;12831;52.392;13.066;2023-04-06T07:27:22;10.15;;;4.70;;
14074;SDS011;12831;52.392;13.066;2023-04-06T07:29:49;9.50;;;4.47;;
14074;SDS011;12831;52.392;13.066;2023-04-06T07:32:15;11.93;;;5.05;;
14074;SDS011;12831;52.392;13.066;2023-04-06T07:34:41;8.65;;;4.00;;
14074;SDS011;12831;52.392;13.066;2023-04-06T07:37:07;7.90;;;4.47;;
14074;SDS011;12831;52.392;13.066;2023-04-06T07:39:33;7.60;;;3.83;;
14074;SDS011;12831;52.392;13.066;2023-04-06T07:41:59;10.82;;;4.40;;
14074;SDS011;12831;52.392;13.066;2023-04-06T07:44:25;7.90;;;4.32;;
14074;SDS011;12831;52.392;13.066;2023-04-06T07:46:51;11.55;;;4.88;;
14074;SDS011;12831;52.392;13.066;2023-04-06T07:49:17;9.50;;;5.20;;
14074;SDS011;12831;52.392;13.066;2023-04-06T07:51:43;8.48;;;4.30;;
14074;SDS011;12831;52.392;13.066;2023-04-06T07:54:09;7.88;;;4.70;;
14074;SDS011;12831;52.392;13.066;2023-04-06T07:56:35;8.55;;;4.10;;
14074;SDS011;12831;52.392;13.066;2023-04-06T07:59:01;8.65;;;4.65;;
14074;SDS011;12831;52.392;13.066;2023-04-06T08:01:28;8.52;;;4.10;;
14074;SDS011;12831;52.392;13.066;2023-04-06T08:03:55;12.20;;;4.70;;
14074;SDS011;12831;52.392;13.066;2023-04-06T08:06:21;9.18;;;4.07;;
14074;SDS011;12831;52.392;13.066;2023-04-06T08:08:47;6.82;;;4.75;;
14074;SDS011;12831;52.392;13.066;2023-04-06T08:11:13;6.55;;;3.83;;
14074;SDS011;12831;52.392;13.066;2023-04-06T08:13:39;10.80;;;4.10;;
14074;SDS011;12831;52.392;13.066;2023-04-06T08:16:24;7.28;;;4.72;;
14074;SDS011;12831;52.392;13.066;2023-04-06T08:18:50;5.90;;;4.05;;
14074;SDS011;12831;52.392;13.066;2023-04-06T08:21:15;11.10;;;3.80;;
14074;SDS011;12831;52.392;13.066;2023-04-06T08:23:41;8.60;;;4.40;;
14074;SDS011;12831;52.392;13.066;2023-04-06T08:26:07;7.88;;;3.75;;
14074;SDS011;12831;52.392;13.066;2023-04-06T08:28:33;5.18;;;3.55;;
14074;SDS011;12831;52.392;13.066;2023-04-06T08:31:03;9.85;;;3.72;;
14074;SDS011;12831;52.392;13.066;2023-04-06T08:33:29;10.85;;;3.88;;
14074;SDS011;12831;52.392;13.066;2023-04-06T08:35:56;5.53;;;3.40;;
14074;SDS011;12831;52.392;13.066;2023-04-06T08:38:22;5.35;;;3.05;;
14074;SDS011;12831;52.392;13.066;2023-04-06T08:40:47;4.53;;;2.80;;
14074;SDS011;12831;52.392;13.066;2023-04-06T08:43:15;5.03;;;2.70;;
14074;SDS011;12831;52.392;13.066;2023-04-06T08:45:42;9.27;;;3.38;;
14074;SDS011;12831;52.392;13.066;2023-04-06T08:48:09;7.95;;;2.83;;
14074;SDS011;12831;52.392;13.066;2023-04-06T08:50:38;12.55;;;5.20;;
14074;SDS011;12831;52.392;13.066;2023-04-06T08:53:03;5.85;;;2.47;;
14074;SDS011;12831;52.392;13.066;2023-04-06T08:55:32;4.72;;;2.05;;
14074;SDS011;12831;52.392;13.066;2023-04-06T08:57:58;5.00;;;2.20;;
14074;SDS011;12831;52.392;13.066;2023-04-06T09:00:24;5.97;;;2.75;;
14074;SDS011;12831;52.392;13.066;2023-04-06T09:02:51;3.47;;;1.85;;
14074;SDS011;12831;52.392;13.066;2023-04-06T09:05:19;6.30;;;2.35;;
14074;SDS011;12831;52.392;13.066;2023-04-06T09:07:45;4.25;;;2.05;;
14074;SDS011;12831;52.392;13.066;2023-04-06T09:10:11;3.63;;;2.10;;
14074;SDS011;12831;52.392;13.066;2023-04-06T09:12:37;3.08;;;1.38;;
14074;SDS011;12831;52.392;13.066;2023-04-06T09:15:03;3.90;;;2.00;;
14074;SDS011;12831;52.392;13.066;2023-04-06T09:17:30;5.47;;;2.42;;
14074;SDS011;12831;52.392;13.066;2023-04-06T09:19:59;3.92;;;1.95;;
14074;SDS011;12831;52.392;13.066;2023-04-06T09:22:25;5.22;;;1.65;;
14074;SDS011;12831;52.392;13.066;2023-04-06T09:24:53;6.68;;;2.40;;
14074;SDS011;12831;52.392;13.066;2023-04-06T09:27:37;6.72;;;2.00;;
14074;SDS011;12831;52.392;13.066;2023-04-06T09:32:49;7.75;;;2.72;;
14074;SDS011;12831;52.392;13.066;2023-04-06T09:35:16;6.85;;;3.00;;
14074;SDS011;12831;52.392;13.066;2023-04-06T09:37:42;8.35;;;2.58;;
14074;SDS011;12831;52.392;13.066;2023-04-06T09:40:08;7.40;;;2.65;;
14074;SDS011;12831;52.392;13.066;2023-04-06T09:42:35;6.10;;;2.33;;
14074;SDS011;12831;52.392;13.066;2023-04-06T09:45:01;6.65;;;3.05;;
14074;SDS011;12831;52.392;13.066;2023-04-06T09:47:45;7.38;;;3.22;;
14074;SDS011;12831;52.392;13.066;2023-04-06T09:50:12;11.95;;;4.20;;
14074;SDS011;12831;52.392;13.066;2023-04-06T09:52:48;4.32;;;2.35;;
14074;SDS011;12831;52.392;13.066;2023-04-06T09:55:23;5.72;;;2.67;;
14074;SDS011;12831;52.392;13.066;2023-04-06T09:57:51;4.60;;;2.70;;
14074;SDS011;12831;52.392;13.066;2023-04-06T10:00:18;4.80;;;2.50;;
14074;SDS011;12831;52.392;13.066;2023-04-06T10:07:48;4.65;;;2.45;;
14074;SDS011;12831;52.392;13.066;2023-04-06T10:10:22;4.45;;;2.10;;
14074;SDS011;12831;52.392;13.066;2023-04-06T10:12:48;5.50;;;2.65;;
14074;SDS011;12831;52.392;13.066;2023-04-06T10:15:15;5.05;;;3.20;;
14074;SDS011;12831;52.392;13.066;2023-04-06T10:17:47;4.00;;;1.90;;
14074;SDS011;12831;52.392;13.066;2023-04-06T10:20:18;5.78;;;2.45;;
14074;SDS011;12831;52.392;13.066;2023-04-06T10:22:59;5.20;;;2.55;;
14074;SDS011;12831;52.392;13.066;2023-04-06T10:25:26;6.00;;;2.95;;
14074;SDS011;12831;52.392;13.066;2023-04-06T10:27:58;5.88;;;2.92;;
14074;SDS011;12831;52.392;13.066;2023-04-06T10:30:24;4.43;;;2.83;;
14074;SDS011;12831;52.392;13.066;2023-04-06T10:32:50;14.02;;;4.15;;
14074;SDS011;12831;52.392;13.066;2023-04-06T10:35:17;3.05;;;2.30;;
14074;SDS011;12831;52.392;13.066;2023-04-06T10:37:50;3.53;;;2.22;;
14074;SDS011;12831;52.392;13.066;2023-04-06T10:40:24;3.60;;;2.05;;
14074;SDS011;12831;52.392;13.066;2023-04-06T10:42:54;4.63;;;2.40;;
14074;SDS011;12831;52.392;13.066;2023-04-06T10:45:20;4.25;;;2.30;;
14074;SDS011;12831;52.392;13.066;2023-04-06T10:47:47;5.07;;;2.90;;
14074;SDS011;12831;52.392;13.066;2023-04-06T10:50:14;4.10;;;2.30;;
14074;SDS011;12831;52.392;13.066;2023-04-06T10:52:40;3.58;;;2.20;;
14074;SDS011;12831;52.392;13.066;2023-04-06T10:55:08;3.65;;;2.10;;
14074;SDS011;12831;52.392;13.066;2023-04-06T10:57:35;3.75;;;2.33;;
14074;SDS011;12831;52.392;13.066;2023-04-06T11:00:05;3.30;;;2.15;;
14074;SDS011;12831;52.392;13.066;2023-04-06T11:02:32;5.82;;;2.55;;
14074;SDS011;12831;52.392;13.066;2023-04-06T11:04:59;6.05;;;2.40;;
14074;SDS011;12831;52.392;13.066;2023-04-06T11:07:28;4.43;;;2.35;;
14074;SDS011;12831;52.392;13.066;2023-04-06T11:09:56;3.58;;;2.33;;
14074;SDS011;12831;52.392;13.066;2023-04-06T11:12:41;7.78;;;2.90;;
14074;SDS011;12831;52.392;13.066;2023-04-06T11:15:07;11.00;;;2.70;;
14074;SDS011;12831;52.392;13.066;2023-04-06T11:20:55;2.47;;;1.73;;
14074;SDS011;12831;52.392;13.066;2023-04-06T11:23:24;4.85;;;2.45;;
14074;SDS011;12831;52.392;13.066;2023-04-06T11:25:51;6.35;;;2.45;;
14074;SDS011;12831;52.392;13.066;2023-04-06T11:28:18;6.25;;;2.72;;
14074;SDS011;12831;52.392;13.066;2023-04-06T11:30:45;7.45;;;2.45;;
14074;SDS011;12831;52.392;13.066;2023-04-06T11:33:11;4.78;;;2.70;;
14074;SDS011;12831;52.392;13.066;2023-04-06T11:35:36;13.25;;;2.88;;
14074;SDS011;12831;52.392;13.066;2023-04-06T11:38:03;6.80;;;3.55;;
14074;SDS011;12831;52.392;13.066;2023-04-06T11:40:29;6.45;;;3.03;;
14074;SDS011;12831;52.392;13.066;2023-04-06T11:42:56;4.85;;;2.83;;
14074;SDS011;12831;52.392;13.066;2023-04-06T11:45:22;4.75;;;2.78;;
14074;SDS011;12831;52.392;13.066;2023-04-06T11:47:58;5.88;;;2.80;;
14074;SDS011;12831;52.392;13.066;2023-04-06T11:50:25;4.82;;;2.78;;
14074;SDS011;12831;52.392;13.066;2023-04-06T11:53:00;3.80;;;2.30;;
14074;SDS011;12831;52.392;13.066;2023-04-06T11:55:26;3.05;;;2.00;;
14074;SDS011;12831;52.392;13.066;2023-04-06T11:57:52;4.50;;;2.42;;
14074;SDS011;12831;52.392;13.066;2023-04-06T12:00:19;6.57;;;2.60;;
14074;SDS011;12831;52.392;13.066;2023-04-06T12:02:46;5.53;;;2.97;;
14074;SDS011;12831;52.392;13.066;2023-04-06T12:05:15;5.30;;;2.58;;
14074;SDS011;12831;52.392;13.066;2023-04-06T12:07:41;3.75;;;2.35;;
14074;SDS011;12831;52.392;13.066;2023-04-06T12:10:07;5.53;;;3.08;;
14074;SDS011;12831;52.392;13.066;2023-04-06T12:12:34;5.82;;;2.58;;
14074;SDS011;12831;52.392;13.066;2023-04-06T12:15:01;5.68;;;2.80;;
14074;SDS011;12831;52.392;13.066;2023-04-06T12:17:40;4.10;;;2.80;;
14074;SDS011;12831;52.392;13.066;2023-04-06T12:20:06;7.07;;;3.15;;
14074;SDS011;12831;52.392;13.066;2023-04-06T12:22:50;7.07;;;3.03;;
14074;SDS011;12831;52.392;13.066;2023-04-06T12:25:16;6.85;;;3.10;;
14074;SDS011;12831;52.392;13.066;2023-04-06T12:27:42;7.90;;;3.83;;
14074;SDS011;12831;52.392;13.066;2023-04-06T12:30:11;7.45;;;3.47;;
14074;SDS011;12831;52.392;13.066;2023-04-06T12:32:38;7.90;;;3.58;;
14074;SDS011;12831;52.392;13.066;2023-04-06T12:35:04;5.90;;;2.90;;
14074;SDS011;12831;52.392;13.066;2023-04-06T12:37:30;8.32;;;2.85;;
14074;SDS011;12831;52.392;13.066;2023-04-06T12:39:56;5.90;;;2.97;;
14074;SDS011;12831;52.392;13.066;2023-04-06T12:42:22;7.60;;;3.22;;
14074;SDS011;12831;52.392;13.066;2023-04-06T12:44:51;5.18;;;2.92;;
14074;SDS011;12831;52.392;13.066;2023-04-06T12:47:23;5.00;;;2.65;;
14074;SDS011;12831;52.392;13.066;2023-04-06T12:49:49;9.82;;;3.15;;
14074;SDS011;12831;52.392;13.066;2023-04-06T12:52:16;7.45;;;3.10;;
14074;SDS011;12831;52.392;13.066;2023-04-06T12:54:42;4.80;;;2.58;;
14074;SDS011;12831;52.392;13.066;2023-04-06T12:57:08;4.82;;;3.13;;
14074;SDS011;12831;52.392;13.066;2023-04-06T12:59:35;4.10;;;2.92;;
14074;SDS011;12831;52.392;13.066;2023-04-06T13:02:03;5.72;;;3.15;;
14074;SDS011;12831;52.392;13.066;2023-04-06T13:04:29;6.53;;;2.92;;
14074;SDS011;12831;52.392;13.066;2023-04-06T13:06:55;6.82;;;2.95;;
14074;SDS011;12831;52.392;13.066;2023-04-06T13:09:21;6.10;;;3.15;;
14074;SDS011;12831;52.392;13.066;2023-04-06T13:11:46;3.90;;;2.63;;
14074;SDS011;12831;52.392;13.066;2023-04-06T13:14:13;4.72;;;2.90;;
14074;SDS011;12831;52.392;13.066;2023-04-06T13:16:39;4.57;;;3.10;;
14074;SDS011;12831;52.392;13.066;2023-04-06T13:19:05;4.97;;;3.00;;
14074;SDS011;12831;52.392;13.066;2023-04-06T13:21:31;7.82;;;3.50;;
14074;SDS011;12831;52.392;13.066;2023-04-06T13:24:01;6.35;;;3.53;;
14074;SDS011;12831;52.392;13.066;2023-04-06T13:26:27;4.57;;;2.67;;
14074;SDS011;12831;52.392;13.066;2023-04-06T13:28:54;6.18;;;3.22;;
14074;SDS011;12831;52.392;13.066;2023-04-06T13:31:22;5.03;;;2.88;;
14074;SDS011;12831;52.392;13.066;2023-04-06T13:33:49;3.97;;;2.80;;
14074;SDS011;12831;52.392;13.066;2023-04-06T13:36:15;4.10;;;3.10;;
14074;SDS011;12831;52.392;13.066;2023-04-06T13:38:43;5.32;;;2.80;;
14074;SDS011;12831;52.392;13.066;2023-04-06T13:41:17;5.57;;;3.30;;
14074;SDS011;12831;52.392;13.066;2023-04-06T13:43:43;6.15;;;3.38;;
14074;SDS011;12831;52.392;13.066;2023-04-06T13:46:15;5.93;;;3.00;;
14074;SDS011;12831;52.392;13.066;2023-04-06T13:48:42;6.10;;;3.13;;
14074;SDS011;12831;52.392;13.066;2023-04-06T13:51:09;5.53;;;3.05;;
14074;SDS011;12831;52.392;13.066;2023-04-06T13:53:37;14.38;;;3.58;;
14074;SDS011;12831;52.392;13.066;2023-04-06T13:56:07;5.72;;;3.80;;
14074;SDS011;12831;52.392;13.066;2023-04-06T13:58:33;5.60;;;3.30;;
14074;SDS011;12831;52.392;13.066;2023-04-06T14:01:04;5.32;;;3.10;;
14074;SDS011;12831;52.392;13.066;2023-04-06T14:03:32;4.75;;;2.85;;
14074;SDS011;12831;52.392;13.066;2023-04-06T14:05:58;6.80;;;3.45;;
14074;SDS011;12831;52.392;13.066;2023-04-06T14:08:34;6.28;;;4.50;;
14074;SDS011;12831;52.392;13.066;2023-04-06T14:11:00;7.22;;;3.83;;
14074;SDS011;12831;52.392;13.066;2023-04-06T14:13:26;6.35;;;3.45;;
14074;SDS011;12831;52.392;13.066;2023-04-06T14:16:02;5.35;;;2.90;;
14074;SDS011;12831;52.392;13.066;2023-04-06T14:18:28;12.10;;;7.53;;
14074;SDS011;12831;52.392;13.066;2023-04-06T14:20:57;6.93;;;3.92;;
14074;SDS011;12831;52.392;13.066;2023-04-06T14:23:24;6.50;;;3.72;;
14074;SDS011;12831;52.392;13.066;2023-04-06T14:26:05;4.53;;;3.30;;
14074;SDS011;12831;52.392;13.066;2023-04-06T14:28:32;8.35;;;4.03;;
14074;SDS011;12831;52.392;13.066;2023-04-06T14:30:59;7.50;;;3.22;;
14074;SDS011;12831;52.392;13.066;2023-04-06T14:33:29;5.97;;;3.20;;
14074;SDS011;12831;52.392;13.066;2023-04-06T14:35:56;5.93;;;2.92;;
14074;SDS011;12831;52.392;13.066;2023-04-06T14:38:23;5.57;;;3.15;;
14074;SDS011;12831;52.392;13.066;2023-04-06T14:40:50;6.43;;;3.58;;